sensor_id;sensor_type;location;lat;lon;timestamp;temperature;humidity
23079;DHT22;11707;50.830;4.364;2022-07-29T00:00:06;19.60;99.90
23079;DHT22;11707;50.830;4.364;2022-07-29T00:02:32;19.60;99.90
23079;DHT22;11707;50.830;4.364;2022-07-29T00:04:58;19.70;99.90
23079;DHT22;11707;50.830;4.364;2022-07-29T00:07:24;19.70;99.90
23079;DHT22;11707;50.830;4.364;2022-07-29T00:09:50;19.70;99.90
23079;DHT22;11707;50.830;4.364;2022-07-29T00:12:16;19.70;99.90
23079;DHT22;11707;50.830;4.364;2022-07-29T00:14:42;19.60;99.90
23079;DHT22;11707;50.830;4.364;2022-07-29T00:17:07;19.50;99.90
23079;DHT22;11707;50.830;4.364;2022-07-29T00:19:33;19.50;99.90
23079;DHT22;11707;50.830;4.364;2022-07-29T00:22:00;19.50;99.90
23079;DHT22;11707;50.830;4.364;2022-07-29T00:24:25;19.50;99.90
23079;DHT22;11707;50.830;4.364;2022-07-29T00:26:51;19.40;99.90
23079;DHT22;11707;50.830;4.364;2022-07-29T00:29:17;19.50;99.90
23079;DHT22;11707;50.830;4.364;2022-07-29T00:31:43;19.50;99.90
23079;DHT22;11707;50.830;4.364;2022-07-29T00:34:09;19.40;99.90
23079;DHT22;11707;50.830;4.364;2022-07-29T00:36:54;19.50;99.90
23079;DHT22;11707;50.830;4.364;2022-07-29T00:39:20;19.40;99.90
23079;DHT22;11707;50.830;4.364;2022-07-29T00:41:46;19.40;99.90
23079;DHT22;11707;50.830;4.364;2022-07-29T00:44:11;19.30;99.90
23079;DHT22;11707;50.830;4.364;2022-07-29T00:46:37;19.30;99.90
23079;DHT22;11707;50.830;4.364;2022-07-29T00:49:03;19.20;99.90
23079;DHT22;11707;50.830;4.364;2022-07-29T00:51:28;19.20;99.90
23079;DHT22;11707;50.830;4.364;2022-07-29T00:53:55;19.10;99.90
23079;DHT22;11707;50.830;4.364;2022-07-29T00:56:22;19.00;99.90
23079;DHT22;11707;50.830;4.364;2022-07-29T00:58:48;18.90;99.90
23079;DHT22;11707;50.830;4.364;2022-07-29T01:01:16;19.00;99.90
23079;DHT22;11707;50.830;4.364;2022-07-29T01:03:41;19.00;99.90
23079;DHT22;11707;50.830;4.364;2022-07-29T01:06:07;19.00;99.90
23079;DHT22;11707;50.830;4.364;2022-07-29T01:08:33;18.90;99.90
23079;DHT22;11707;50.830;4.364;2022-07-29T01:11:00;18.90;99.90
23079;DHT22;11707;50.830;4.364;2022-07-29T01:13:26;18.90;99.90
23079;DHT22;11707;50.830;4.364;2022-07-29T01:16:09;18.80;99.90
23079;DHT22;11707;50.830;4.364;2022-07-29T01:18:41;18.90;99.90
23079;DHT22;11707;50.830;4.364;2022-07-29T01:24:24;19.00;99.90
23079;DHT22;11707;50.830;4.364;2022-07-29T01:27:16;18.90;99.90
23079;DHT22;11707;50.830;4.364;2022-07-29T01:29:49;18.80;99.90
23079;DHT22;11707;50.830;4.364;2022-07-29T01:32:26;18.80;99.90
23079;DHT22;11707;50.830;4.364;2022-07-29T01:35:24;18.90;99.90
23079;DHT22;11707;50.830;4.364;2022-07-29T01:38:08;18.70;99.90
23079;DHT22;11707;50.830;4.364;2022-07-29T01:40:48;18.70;99.90
23079;DHT22;11707;50.830;4.364;2022-07-29T01:43:18;18.70;99.90
23079;DHT22;11707;50.830;4.364;2022-07-29T01:45:50;18.60;99.90
23079;DHT22;11707;50.830;4.364;2022-07-29T01:50:49;18.40;99.90
23079;DHT22;11707;50.830;4.364;2022-07-29T01:54:10;18.40;99.90
23079;DHT22;11707;50.830;4.364;2022-07-29T01:56:17;18.30;99.90
23079;DHT22;11707;50.830;4.364;2022-07-29T01:58:43;18.40;99.90
23079;DHT22;11707;50.830;4.364;2022-07-29T02:01:11;18.50;99.90
23079;DHT22;11707;50.830;4.364;2022-07-29T02:03:39;18.60;99.90
23079;DHT22;11707;50.830;4.364;2022-07-29T02:06:09;18.50;99.90
23079;DHT22;11707;50.830;4.364;2022-07-29T02:08:38;18.40;99.90
23079;DHT22;11707;50.830;4.364;2022-07-29T02:11:05;18.40;99.90
23079;DHT22;11707;50.830;4.364;2022-07-29T02:13:34;18.40;99.90
23079;DHT22;11707;50.830;4.364;2022-07-29T02:16:01;18.40;99.90
23079;DHT22;11707;50.830;4.364;2022-07-29T02:18:30;18.30;99.90
23079;DHT22;11707;50.830;4.364;2022-07-29T02:20:58;18.20;99.90
23079;DHT22;11707;50.830;4.364;2022-07-29T02:23:25;18.30;99.90
23079;DHT22;11707;50.830;4.364;2022-07-29T02:25:56;18.30;99.90
23079;DHT22;11707;50.830;4.364;2022-07-29T02:28:25;18.20;99.90
23079;DHT22;11707;50.830;4.364;2022-07-29T02:30:53;18.20;99.90
23079;DHT22;11707;50.830;4.364;2022-07-29T02:33:21;18.20;99.90
23079;DHT22;11707;50.830;4.364;2022-07-29T02:35:48;18.20;99.90
23079;DHT22;11707;50.830;4.364;2022-07-29T02:38:16;18.30;99.90
23079;DHT22;11707;50.830;4.364;2022-07-29T02:41:03;18.10;99.90
23079;DHT22;11707;50.830;4.364;2022-07-29T02:43:30;18.20;99.90
23079;DHT22;11707;50.830;4.364;2022-07-29T02:45:59;18.20;99.90
23079;DHT22;11707;50.830;4.364;2022-07-29T02:48:36;18.20;99.90
23079;DHT22;11707;50.830;4.364;2022-07-29T02:51:10;18.30;99.90
23079;DHT22;11707;50.830;4.364;2022-07-29T02:53:38;18.20;99.90
23079;DHT22;11707;50.830;4.364;2022-07-29T02:56:10;18.20;99.90
23079;DHT22;11707;50.830;4.364;2022-07-29T02:58:57;18.20;99.90
23079;DHT22;11707;50.830;4.364;2022-07-29T03:01:25;18.10;99.90
23079;DHT22;11707;50.830;4.364;2022-07-29T03:03:54;18.10;99.90
23079;DHT22;11707;50.830;4.364;2022-07-29T03:06:22;18.10;99.90
23079;DHT22;11707;50.830;4.364;2022-07-29T03:08:49;18.10;99.90
23079;DHT22;11707;50.830;4.364;2022-07-29T03:11:16;18.00;99.90
23079;DHT22;11707;50.830;4.364;2022-07-29T03:13:43;18.00;99.90
23079;DHT22;11707;50.830;4.364;2022-07-29T03:16:10;18.00;99.90
23079;DHT22;11707;50.830;4.364;2022-07-29T03:18:37;18.00;99.90
23079;DHT22;11707;50.830;4.364;2022-07-29T03:21:03;18.00;99.90
23079;DHT22;11707;50.830;4.364;2022-07-29T03:23:29;18.00;99.90
23079;DHT22;11707;50.830;4.364;2022-07-29T03:25:55;18.00;99.90
23079;DHT22;11707;50.830;4.364;2022-07-29T03:28:22;17.90;99.90
23079;DHT22;11707;50.830;4.364;2022-07-29T03:30:48;17.90;99.90
23079;DHT22;11707;50.830;4.364;2022-07-29T03:33:14;17.90;99.90
23079;DHT22;11707;50.830;4.364;2022-07-29T03:35:40;17.90;99.90
23079;DHT22;11707;50.830;4.364;2022-07-29T03:38:06;17.80;99.90
23079;DHT22;11707;50.830;4.364;2022-07-29T03:40:39;17.60;99.90
23079;DHT22;11707;50.830;4.364;2022-07-29T03:43:07;17.60;99.90
23079;DHT22;11707;50.830;4.364;2022-07-29T03:45:34;17.60;99.90
23079;DHT22;11707;50.830;4.364;2022-07-29T03:48:09;17.70;99.90
23079;DHT22;11707;50.830;4.364;2022-07-29T03:50:35;17.60;99.90
23079;DHT22;11707;50.830;4.364;2022-07-29T03:53:02;17.60;99.90
23079;DHT22;11707;50.830;4.364;2022-07-29T03:55:29;17.70;99.90
23079;DHT22;11707;50.830;4.364;2022-07-29T03:57:57;17.60;99.90
23079;DHT22;11707;50.830;4.364;2022-07-29T04:00:24;17.60;99.90
23079;DHT22;11707;50.830;4.364;2022-07-29T04:02:51;17.60;99.90
23079;DHT22;11707;50.830;4.364;2022-07-29T04:05:17;17.50;99.90
23079;DHT22;11707;50.830;4.364;2022-07-29T04:07:44;17.60;99.90
23079;DHT22;11707;50.830;4.364;2022-07-29T04:10:10;17.50;99.90
23079;DHT22;11707;50.830;4.364;2022-07-29T04:12:36;17.50;99.90
23079;DHT22;11707;50.830;4.364;2022-07-29T04:15:03;17.50;99.90
23079;DHT22;11707;50.830;4.364;2022-07-29T04:17:29;17.60;99.90
23079;DHT22;11707;50.830;4.364;2022-07-29T04:19:54;17.60;99.90
23079;DHT22;11707;50.830;4.364;2022-07-29T04:22:20;17.60;99.90
23079;DHT22;11707;50.830;4.364;2022-07-29T04:24:46;17.60;99.90
23079;DHT22;11707;50.830;4.364;2022-07-29T04:27:11;17.50;99.90
23079;DHT22;11707;50.830;4.364;2022-07-29T04:29:37;17.60;99.90
23079;DHT22;11707;50.830;4.364;2022-07-29T04:32:03;17.50;99.90
23079;DHT22;11707;50.830;4.364;2022-07-29T04:34:29;17.50;99.90
23079;DHT22;11707;50.830;4.364;2022-07-29T04:36:55;17.40;99.90
23079;DHT22;11707;50.830;4.364;2022-07-29T04:39:20;17.50;99.90
23079;DHT22;11707;50.830;4.364;2022-07-29T04:41:46;17.50;99.90
23079;DHT22;11707;50.830;4.364;2022-07-29T04:44:12;17.40;99.90
23079;DHT22;11707;50.830;4.364;2022-07-29T04:46:38;17.50;99.90
23079;DHT22;11707;50.830;4.364;2022-07-29T04:49:04;17.60;99.90
23079;DHT22;11707;50.830;4.364;2022-07-29T04:51:30;17.70;99.90
23079;DHT22;11707;50.830;4.364;2022-07-29T04:53:56;17.70;99.90
23079;DHT22;11707;50.830;4.364;2022-07-29T04:56:22;17.80;99.90
23079;DHT22;11707;50.830;4.364;2022-07-29T04:58:47;17.70;99.90
23079;DHT22;11707;50.830;4.364;2022-07-29T05:01:13;17.70;99.90
23079;DHT22;11707;50.830;4.364;2022-07-29T05:03:40;17.60;99.90
23079;DHT22;11707;50.830;4.364;2022-07-29T05:06:05;17.50;99.90
23079;DHT22;11707;50.830;4.364;2022-07-29T05:08:31;17.40;99.90
23079;DHT22;11707;50.830;4.364;2022-07-29T05:10:57;17.50;99.90
23079;DHT22;11707;50.830;4.364;2022-07-29T05:13:23;17.60;99.90
23079;DHT22;11707;50.830;4.364;2022-07-29T05:15:49;17.60;99.90
23079;DHT22;11707;50.830;4.364;2022-07-29T05:18:15;17.60;99.90
23079;DHT22;11707;50.830;4.364;2022-07-29T05:20:41;17.60;99.90
23079;DHT22;11707;50.830;4.364;2022-07-29T05:23:07;17.60;99.90
23079;DHT22;11707;50.830;4.364;2022-07-29T05:25:32;17.60;99.90
23079;DHT22;11707;50.830;4.364;2022-07-29T05:27:58;17.70;99.90
23079;DHT22;11707;50.830;4.364;2022-07-29T05:30:24;17.70;99.90
23079;DHT22;11707;50.830;4.364;2022-07-29T05:32:50;17.70;99.90
23079;DHT22;11707;50.830;4.364;2022-07-29T05:35:16;17.70;99.90
23079;DHT22;11707;50.830;4.364;2022-07-29T05:37:41;17.70;99.90
23079;DHT22;11707;50.830;4.364;2022-07-29T05:40:08;17.80;99.90
23079;DHT22;11707;50.830;4.364;2022-07-29T05:42:34;17.70;99.90
23079;DHT22;11707;50.830;4.364;2022-07-29T05:45:00;17.60;99.90
23079;DHT22;11707;50.830;4.364;2022-07-29T05:47:26;17.50;99.90
23079;DHT22;11707;50.830;4.364;2022-07-29T05:49:52;17.60;99.90
23079;DHT22;11707;50.830;4.364;2022-07-29T05:52:20;17.60;99.90
23079;DHT22;11707;50.830;4.364;2022-07-29T05:54:46;17.60;99.90
23079;DHT22;11707;50.830;4.364;2022-07-29T05:57:20;17.60;99.90
23079;DHT22;11707;50.830;4.364;2022-07-29T05:59:46;17.50;99.90
23079;DHT22;11707;50.830;4.364;2022-07-29T06:02:12;17.40;99.90
23079;DHT22;11707;50.830;4.364;2022-07-29T06:04:38;17.40;99.90
23079;DHT22;11707;50.830;4.364;2022-07-29T06:07:04;17.40;99.90
23079;DHT22;11707;50.830;4.364;2022-07-29T06:09:29;17.50;99.90
23079;DHT22;11707;50.830;4.364;2022-07-29T06:11:55;17.60;99.90
23079;DHT22;11707;50.830;4.364;2022-07-29T06:14:21;17.70;99.90
23079;DHT22;11707;50.830;4.364;2022-07-29T06:16:46;17.70;99.90
23079;DHT22;11707;50.830;4.364;2022-07-29T06:19:12;17.80;99.90
23079;DHT22;11707;50.830;4.364;2022-07-29T06:21:42;17.90;99.90
23079;DHT22;11707;50.830;4.364;2022-07-29T06:24:10;18.10;99.90
23079;DHT22;11707;50.830;4.364;2022-07-29T06:26:35;18.20;99.90
23079;DHT22;11707;50.830;4.364;2022-07-29T06:29:01;18.30;99.90
23079;DHT22;11707;50.830;4.364;2022-07-29T06:31:27;18.50;99.90
23079;DHT22;11707;50.830;4.364;2022-07-29T06:33:52;18.50;99.90
23079;DHT22;11707;50.830;4.364;2022-07-29T06:36:18;18.50;99.90
23079;DHT22;11707;50.830;4.364;2022-07-29T06:38:44;18.60;99.90
23079;DHT22;11707;50.830;4.364;2022-07-29T06:41:10;18.60;99.90
23079;DHT22;11707;50.830;4.364;2022-07-29T06:43:42;18.60;99.90
23079;DHT22;11707;50.830;4.364;2022-07-29T06:46:13;18.60;99.90
23079;DHT22;11707;50.830;4.364;2022-07-29T06:48:40;18.60;99.90
23079;DHT22;11707;50.830;4.364;2022-07-29T06:51:07;18.60;99.90
23079;DHT22;11707;50.830;4.364;2022-07-29T06:53:33;18.70;99.90
23079;DHT22;11707;50.830;4.364;2022-07-29T06:56:00;18.90;99.90
23079;DHT22;11707;50.830;4.364;2022-07-29T06:58:27;19.10;99.90
23079;DHT22;11707;50.830;4.364;2022-07-29T07:00:54;19.20;99.90
23079;DHT22;11707;50.830;4.364;2022-07-29T07:03:19;19.40;99.90
23079;DHT22;11707;50.830;4.364;2022-07-29T07:05:46;19.30;99.90
23079;DHT22;11707;50.830;4.364;2022-07-29T07:08:12;19.20;99.90
23079;DHT22;11707;50.830;4.364;2022-07-29T07:10:39;19.30;99.90
23079;DHT22;11707;50.830;4.364;2022-07-29T07:13:06;19.40;99.90
23079;DHT22;11707;50.830;4.364;2022-07-29T07:15:33;19.50;99.90
23079;DHT22;11707;50.830;4.364;2022-07-29T07:17:59;19.50;99.90
23079;DHT22;11707;50.830;4.364;2022-07-29T07:20:25;19.40;99.90
23079;DHT22;11707;50.830;4.364;2022-07-29T07:22:50;19.40;99.90
23079;DHT22;11707;50.830;4.364;2022-07-29T07:25:16;19.50;99.90
23079;DHT22;11707;50.830;4.364;2022-07-29T07:27:43;19.50;99.90
23079;DHT22;11707;50.830;4.364;2022-07-29T07:30:10;19.50;99.90
23079;DHT22;11707;50.830;4.364;2022-07-29T07:32:36;19.30;99.90
23079;DHT22;11707;50.830;4.364;2022-07-29T07:35:04;19.30;99.90
23079;DHT22;11707;50.830;4.364;2022-07-29T07:37:30;19.30;99.90
23079;DHT22;11707;50.830;4.364;2022-07-29T07:39:56;19.20;99.90
23079;DHT22;11707;50.830;4.364;2022-07-29T07:42:23;19.30;99.90
23079;DHT22;11707;50.830;4.364;2022-07-29T07:44:49;19.30;99.90
23079;DHT22;11707;50.830;4.364;2022-07-29T07:47:15;19.30;99.90
23079;DHT22;11707;50.830;4.364;2022-07-29T07:49:52;19.40;99.90
23079;DHT22;11707;50.830;4.364;2022-07-29T07:52:20;19.70;99.90
23079;DHT22;11707;50.830;4.364;2022-07-29T07:54:46;19.80;99.90
23079;DHT22;11707;50.830;4.364;2022-07-29T07:57:12;19.90;99.90
23079;DHT22;11707;50.830;4.364;2022-07-29T07:59:38;20.00;99.90
23079;DHT22;11707;50.830;4.364;2022-07-29T08:02:05;20.10;99.90
23079;DHT22;11707;50.830;4.364;2022-07-29T08:04:30;20.10;99.90
23079;DHT22;11707;50.830;4.364;2022-07-29T08:06:57;20.20;99.90
23079;DHT22;11707;50.830;4.364;2022-07-29T08:09:24;20.30;99.90
23079;DHT22;11707;50.830;4.364;2022-07-29T08:11:51;20.40;99.90
23079;DHT22;11707;50.830;4.364;2022-07-29T08:14:17;20.50;99.90
23079;DHT22;11707;50.830;4.364;2022-07-29T08:16:43;20.40;99.90
23079;DHT22;11707;50.830;4.364;2022-07-29T08:19:09;20.50;99.90
23079;DHT22;11707;50.830;4.364;2022-07-29T08:21:35;20.60;99.90
23079;DHT22;11707;50.830;4.364;2022-07-29T08:24:01;20.70;99.90
23079;DHT22;11707;50.830;4.364;2022-07-29T08:26:46;20.90;99.90
23079;DHT22;11707;50.830;4.364;2022-07-29T08:29:12;21.00;99.90
23079;DHT22;11707;50.830;4.364;2022-07-29T08:31:38;21.20;99.90
23079;DHT22;11707;50.830;4.364;2022-07-29T08:34:04;21.30;99.90
23079;DHT22;11707;50.830;4.364;2022-07-29T08:36:31;21.40;99.90
23079;DHT22;11707;50.830;4.364;2022-07-29T08:38:57;21.40;99.90
23079;DHT22;11707;50.830;4.364;2022-07-29T08:41:22;21.40;99.90
23079;DHT22;11707;50.830;4.364;2022-07-29T08:43:49;21.50;99.90
23079;DHT22;11707;50.830;4.364;2022-07-29T08:46:15;21.60;99.90
23079;DHT22;11707;50.830;4.364;2022-07-29T08:48:42;21.70;99.90
23079;DHT22;11707;50.830;4.364;2022-07-29T08:51:08;21.50;99.90
23079;DHT22;11707;50.830;4.364;2022-07-29T08:53:41;21.40;99.90
23079;DHT22;11707;50.830;4.364;2022-07-29T08:56:07;21.60;99.90
23079;DHT22;11707;50.830;4.364;2022-07-29T08:58:36;21.60;99.90
23079;DHT22;11707;50.830;4.364;2022-07-29T09:01:03;21.60;99.90
23079;DHT22;11707;50.830;4.364;2022-07-29T09:03:33;21.80;99.90
23079;DHT22;11707;50.830;4.364;2022-07-29T09:06:00;21.90;99.90
23079;DHT22;11707;50.830;4.364;2022-07-29T09:08:27;22.10;99.90
23079;DHT22;11707;50.830;4.364;2022-07-29T09:10:54;22.10;99.90
23079;DHT22;11707;50.830;4.364;2022-07-29T09:13:21;22.20;99.90
23079;DHT22;11707;50.830;4.364;2022-07-29T09:15:47;22.30;99.90
23079;DHT22;11707;50.830;4.364;2022-07-29T09:18:37;22.50;99.90
23079;DHT22;11707;50.830;4.364;2022-07-29T09:21:04;22.70;99.90
23079;DHT22;11707;50.830;4.364;2022-07-29T09:24:05;22.70;99.90
23079;DHT22;11707;50.830;4.364;2022-07-29T09:26:36;22.80;99.90
23079;DHT22;11707;50.830;4.364;2022-07-29T09:29:17;23.10;99.90
23079;DHT22;11707;50.830;4.364;2022-07-29T09:31:45;23.10;99.90
23079;DHT22;11707;50.830;4.364;2022-07-29T09:34:12;23.00;99.90
23079;DHT22;11707;50.830;4.364;2022-07-29T09:36:43;23.00;99.90
23079;DHT22;11707;50.830;4.364;2022-07-29T09:39:09;23.20;99.90
23079;DHT22;11707;50.830;4.364;2022-07-29T09:41:50;23.10;99.90
23079;DHT22;11707;50.830;4.364;2022-07-29T09:44:18;23.10;99.90
23079;DHT22;11707;50.830;4.364;2022-07-29T09:46:58;23.10;99.90
23079;DHT22;11707;50.830;4.364;2022-07-29T09:49:24;23.00;99.90
23079;DHT22;11707;50.830;4.364;2022-07-29T09:52:03;22.90;99.90
23079;DHT22;11707;50.830;4.364;2022-07-29T09:54:30;22.90;99.90
23079;DHT22;11707;50.830;4.364;2022-07-29T09:57:09;23.00;99.90
23079;DHT22;11707;50.830;4.364;2022-07-29T09:59:38;22.90;99.90
23079;DHT22;11707;50.830;4.364;2022-07-29T10:02:14;23.10;99.90
23079;DHT22;11707;50.830;4.364;2022-07-29T10:04:42;23.30;99.90
23079;DHT22;11707;50.830;4.364;2022-07-29T10:07:08;23.30;99.90
23079;DHT22;11707;50.830;4.364;2022-07-29T10:09:35;23.40;99.90
23079;DHT22;11707;50.830;4.364;2022-07-29T10:12:11;23.50;99.90
23079;DHT22;11707;50.830;4.364;2022-07-29T10:14:40;23.50;99.90
23079;DHT22;11707;50.830;4.364;2022-07-29T10:17:07;23.40;99.90
23079;DHT22;11707;50.830;4.364;2022-07-29T10:19:33;23.40;99.90
23079;DHT22;11707;50.830;4.364;2022-07-29T10:22:02;23.50;99.90
23079;DHT22;11707;50.830;4.364;2022-07-29T10:24:29;23.60;99.90
23079;DHT22;11707;50.830;4.364;2022-07-29T10:26:57;23.60;99.90
23079;DHT22;11707;50.830;4.364;2022-07-29T10:29:23;23.70;99.90
23079;DHT22;11707;50.830;4.364;2022-07-29T10:37:33;24.20;99.90
23079;DHT22;11707;50.830;4.364;2022-07-29T10:40:15;24.20;99.90
23079;DHT22;11707;50.830;4.364;2022-07-29T10:43:17;24.20;99.90
23079;DHT22;11707;50.830;4.364;2022-07-29T10:45:46;24.30;99.90
23079;DHT22;11707;50.830;4.364;2022-07-29T10:48:13;24.40;99.90
23079;DHT22;11707;50.830;4.364;2022-07-29T10:51:04;24.40;99.90
23079;DHT22;11707;50.830;4.364;2022-07-29T10:53:47;24.40;99.90
23079;DHT22;11707;50.830;4.364;2022-07-29T10:56:32;24.40;99.80
23079;DHT22;11707;50.830;4.364;2022-07-29T11:01:46;24.70;98.60
23079;DHT22;11707;50.830;4.364;2022-07-29T11:04:12;24.90;98.10
23079;DHT22;11707;50.830;4.364;2022-07-29T11:09:26;25.00;98.10
23079;DHT22;11707;50.830;4.364;2022-07-29T11:11:52;24.90;98.20
23079;DHT22;11707;50.830;4.364;2022-07-29T11:14:20;25.00;98.30
23079;DHT22;11707;50.830;4.364;2022-07-29T11:17:05;25.20;97.80
23079;DHT22;11707;50.830;4.364;2022-07-29T11:19:31;25.10;97.50
23079;DHT22;11707;50.830;4.364;2022-07-29T11:21:58;25.10;97.30
23079;DHT22;11707;50.830;4.364;2022-07-29T11:24:27;25.20;96.40
23079;DHT22;11707;50.830;4.364;2022-07-29T11:27:10;25.30;95.90
23079;DHT22;11707;50.830;4.364;2022-07-29T11:29:48;25.10;96.20
23079;DHT22;11707;50.830;4.364;2022-07-29T11:32:15;25.00;96.00
23079;DHT22;11707;50.830;4.364;2022-07-29T11:34:43;25.00;95.60
23079;DHT22;11707;50.830;4.364;2022-07-29T11:47:37;25.20;94.90
23079;DHT22;11707;50.830;4.364;2022-07-29T11:50:05;25.40;94.80
23079;DHT22;11707;50.830;4.364;2022-07-29T11:52:45;25.30;94.90
23079;DHT22;11707;50.830;4.364;2022-07-29T11:57:56;25.40;94.70
23079;DHT22;11707;50.830;4.364;2022-07-29T12:00:31;25.50;94.50
23079;DHT22;11707;50.830;4.364;2022-07-29T12:02:59;25.70;94.20
23079;DHT22;11707;50.830;4.364;2022-07-29T12:08:07;25.10;93.60
23079;DHT22;11707;50.830;4.364;2022-07-29T12:10:33;25.00;93.70
23079;DHT22;11707;50.830;4.364;2022-07-29T12:12:59;25.00;93.40
23079;DHT22;11707;50.830;4.364;2022-07-29T12:15:25;25.00;93.40
23079;DHT22;11707;50.830;4.364;2022-07-29T12:17:51;25.00;93.20
23079;DHT22;11707;50.830;4.364;2022-07-29T12:20:30;25.10;93.30
23079;DHT22;11707;50.830;4.364;2022-07-29T12:22:56;25.30;92.60
23079;DHT22;11707;50.830;4.364;2022-07-29T12:25:23;25.60;92.20
23079;DHT22;11707;50.830;4.364;2022-07-29T12:28:00;25.90;91.80
23079;DHT22;11707;50.830;4.364;2022-07-29T12:30:47;25.80;92.20
23079;DHT22;11707;50.830;4.364;2022-07-29T12:33:19;25.90;92.10
23079;DHT22;11707;50.830;4.364;2022-07-29T12:35:48;26.00;92.20
23079;DHT22;11707;50.830;4.364;2022-07-29T12:38:15;25.90;91.90
23079;DHT22;11707;50.830;4.364;2022-07-29T12:40:41;25.90;91.40
23079;DHT22;11707;50.830;4.364;2022-07-29T12:43:10;26.00;91.30
23079;DHT22;11707;50.830;4.364;2022-07-29T12:45:39;26.00;91.40
23079;DHT22;11707;50.830;4.364;2022-07-29T12:48:06;25.90;91.20
23079;DHT22;11707;50.830;4.364;2022-07-29T12:50:37;25.90;91.00
23079;DHT22;11707;50.830;4.364;2022-07-29T12:53:16;25.80;91.40
23079;DHT22;11707;50.830;4.364;2022-07-29T12:55:44;25.90;91.50
23079;DHT22;11707;50.830;4.364;2022-07-29T12:58:25;27.20;90.30
23079;DHT22;11707;50.830;4.364;2022-07-29T13:01:09;28.40;86.10
23079;DHT22;11707;50.830;4.364;2022-07-29T13:03:52;29.10;81.20
23079;DHT22;11707;50.830;4.364;2022-07-29T13:09:17;31.40;74.00
23079;DHT22;11707;50.830;4.364;2022-07-29T13:11:48;29.90;73.60
23079;DHT22;11707;50.830;4.364;2022-07-29T13:14:33;27.90;78.10
23079;DHT22;11707;50.830;4.364;2022-07-29T13:17:04;26.80;82.40
23079;DHT22;11707;50.830;4.364;2022-07-29T13:19:44;26.50;83.60
23079;DHT22;11707;50.830;4.364;2022-07-29T13:22:17;26.60;83.90
23079;DHT22;11707;50.830;4.364;2022-07-29T13:27:18;27.20;83.80
23079;DHT22;11707;50.830;4.364;2022-07-29T13:29:45;26.70;84.60
23079;DHT22;11707;50.830;4.364;2022-07-29T13:32:12;27.20;84.50
23079;DHT22;11707;50.830;4.364;2022-07-29T13:34:38;28.10;81.70
23079;DHT22;11707;50.830;4.364;2022-07-29T13:37:04;29.20;78.80
23079;DHT22;11707;50.830;4.364;2022-07-29T13:39:30;29.70;76.10
23079;DHT22;11707;50.830;4.364;2022-07-29T13:41:56;29.90;74.10
23079;DHT22;11707;50.830;4.364;2022-07-29T13:44:22;29.30;74.20
23079;DHT22;11707;50.830;4.364;2022-07-29T13:46:47;29.60;73.70
23079;DHT22;11707;50.830;4.364;2022-07-29T13:49:13;30.50;71.40
23079;DHT22;11707;50.830;4.364;2022-07-29T13:51:39;30.70;69.00
23079;DHT22;11707;50.830;4.364;2022-07-29T13:54:05;30.10;70.00
23079;DHT22;11707;50.830;4.364;2022-07-29T13:56:30;30.40;69.00
23079;DHT22;11707;50.830;4.364;2022-07-29T13:58:56;30.50;68.20
23079;DHT22;11707;50.830;4.364;2022-07-29T14:01:23;30.10;68.10
23079;DHT22;11707;50.830;4.364;2022-07-29T14:03:48;30.20;68.10
23079;DHT22;11707;50.830;4.364;2022-07-29T14:06:14;29.70;68.60
23079;DHT22;11707;50.830;4.364;2022-07-29T14:08:40;29.40;69.40
23079;DHT22;11707;50.830;4.364;2022-07-29T14:11:06;30.20;67.80
23079;DHT22;11707;50.830;4.364;2022-07-29T14:13:31;31.30;65.70
23079;DHT22;11707;50.830;4.364;2022-07-29T14:15:57;31.90;63.10
23079;DHT22;11707;50.830;4.364;2022-07-29T14:18:23;32.80;60.00
23079;DHT22;11707;50.830;4.364;2022-07-29T14:20:49;34.70;56.40
23079;DHT22;11707;50.830;4.364;2022-07-29T14:23:16;35.00;52.90
23079;DHT22;11707;50.830;4.364;2022-07-29T14:25:42;34.50;52.20
23079;DHT22;11707;50.830;4.364;2022-07-29T14:28:07;32.30;54.60
23079;DHT22;11707;50.830;4.364;2022-07-29T14:30:33;30.50;58.70
23079;DHT22;11707;50.830;4.364;2022-07-29T14:32:59;29.50;61.00
23079;DHT22;11707;50.830;4.364;2022-07-29T14:35:25;28.90;64.30
23079;DHT22;11707;50.830;4.364;2022-07-29T14:37:50;28.30;66.20
23079;DHT22;11707;50.830;4.364;2022-07-29T14:40:16;27.70;66.70
23079;DHT22;11707;50.830;4.364;2022-07-29T14:42:42;27.80;66.90
23079;DHT22;11707;50.830;4.364;2022-07-29T14:45:08;29.00;63.80
23079;DHT22;11707;50.830;4.364;2022-07-29T14:47:35;30.10;60.80
23079;DHT22;11707;50.830;4.364;2022-07-29T14:50:01;31.00;58.90
23079;DHT22;11707;50.830;4.364;2022-07-29T14:52:27;31.40;58.60
23079;DHT22;11707;50.830;4.364;2022-07-29T14:54:53;32.50;56.90
23079;DHT22;11707;50.830;4.364;2022-07-29T14:57:19;33.10;55.60
23079;DHT22;11707;50.830;4.364;2022-07-29T14:59:45;33.30;54.90
23079;DHT22;11707;50.830;4.364;2022-07-29T15:02:10;33.20;53.90
23079;DHT22;11707;50.830;4.364;2022-07-29T15:04:36;32.50;55.20
23079;DHT22;11707;50.830;4.364;2022-07-29T15:07:08;32.00;55.80
23079;DHT22;11707;50.830;4.364;2022-07-29T15:09:33;31.20;56.90
23079;DHT22;11707;50.830;4.364;2022-07-29T15:11:59;29.90;58.50
23079;DHT22;11707;50.830;4.364;2022-07-29T15:14:25;29.10;60.50
23079;DHT22;11707;50.830;4.364;2022-07-29T15:16:50;29.30;60.10
23079;DHT22;11707;50.830;4.364;2022-07-29T15:19:16;30.60;58.70
23079;DHT22;11707;50.830;4.364;2022-07-29T15:21:42;30.70;57.50
23079;DHT22;11707;50.830;4.364;2022-07-29T15:24:08;29.90;58.60
23079;DHT22;11707;50.830;4.364;2022-07-29T15:26:33;30.30;58.00
23079;DHT22;11707;50.830;4.364;2022-07-29T15:28:59;30.10;57.70
23079;DHT22;11707;50.830;4.364;2022-07-29T15:31:25;28.80;59.80
23079;DHT22;11707;50.830;4.364;2022-07-29T15:33:51;28.20;62.10
23079;DHT22;11707;50.830;4.364;2022-07-29T15:36:16;27.90;63.00
23079;DHT22;11707;50.830;4.364;2022-07-29T15:38:42;27.20;65.00
23079;DHT22;11707;50.830;4.364;2022-07-29T15:41:09;27.10;65.40
23079;DHT22;11707;50.830;4.364;2022-07-29T15:43:43;27.10;65.90
23079;DHT22;11707;50.830;4.364;2022-07-29T15:46:13;26.90;66.60
23079;DHT22;11707;50.830;4.364;2022-07-29T15:48:57;26.70;67.70
23079;DHT22;11707;50.830;4.364;2022-07-29T15:51:23;26.60;66.80
23079;DHT22;11707;50.830;4.364;2022-07-29T15:53:49;26.60;67.60
23079;DHT22;11707;50.830;4.364;2022-07-29T15:56:15;26.40;68.20
23079;DHT22;11707;50.830;4.364;2022-07-29T15:58:41;26.50;68.70
23079;DHT22;11707;50.830;4.364;2022-07-29T16:01:06;26.60;67.70
23079;DHT22;11707;50.830;4.364;2022-07-29T16:03:32;26.40;68.20
23079;DHT22;11707;50.830;4.364;2022-07-29T16:05:57;26.20;69.00
23079;DHT22;11707;50.830;4.364;2022-07-29T16:08:23;26.40;68.70
23079;DHT22;11707;50.830;4.364;2022-07-29T16:10:49;26.10;68.80
23079;DHT22;11707;50.830;4.364;2022-07-29T16:13:15;26.00;70.10
23079;DHT22;11707;50.830;4.364;2022-07-29T16:15:40;26.10;70.00